Wilson Norfolk — 9HA2466 — position and weather

sailwx.info

Track history (hours):
 
Tides and Currents Weather Stations Pressure Air Temp Water Temp Dewpoint Dewpoint Depression Visibility Wind Speed Wind Dir Waves Ship Positions

Wilson Norfolk

Last reported at 2016-Dec-02 12:33 UTC. Time now 2016-Dec-10 07:00 UTC.
Position N 71°05' E 030°19'.

Length 123 m; draft 5 m.

Type: Cargo ship. MMSI: 248678000.

Date/timePositionNaut miles runAvg speedWind from/ knotsBaromVisibWave heightAir tempDewpointWater temp
2016-Dec-02 12:33N 71°05' E 030°19'8 7.6
2016-Dec-02 11:32N 71°09' E 029°60'1212.6
2016-Dec-02 10:33N 71°16' E 029°29'37612.8
2016-Dec-01 05:10N 67°23' E 015°35'1 1.2
2016-Dec-01 04:29N 67°23' E 015°35'0 0.4
2016-Dec-01 03:19N 67°24' E 015°34'2 2.3
2016-Dec-01 02:27N 67°25' E 015°32'5 2.6
2016-Dec-01 00:33N 67°30' E 015°27'6 5.5
2016-Nov-30 23:32N 67°32' E 015°14'6 6.5
2016-Nov-30 22:33N 67°36' E 014°59'8 8.0
2016-Nov-30 21:33N 67°32' E 014°41'8 7.6
2016-Nov-30 20:33N 67°30' E 014°22'7 7.4
2016-Nov-30 19:33N 67°30' E 014°03'8 8.1
2016-Nov-30 18:33N 67°27' E 013°43'8 8.4
2016-Nov-30 17:34N 67°22' E 013°26'7 7.3
2016-Nov-30 16:33N 67°18' E 013°11'35 2.0
2016-Nov-29 23:32N 67°44' E 014°09'9 9.5
2016-Nov-29 22:33N 67°35' E 014°19'9 8.7
2016-Nov-29 21:33N 67°31' E 014°37'13 9.6
2016-Nov-29 20:11N 67°34' E 015°11'10 0.3
2016-Nov-28 12:26N 67°33' E 014°45'1111.3
2016-Nov-28 11:29N 67°30' E 014°18'1111.4
2016-Nov-28 10:33N 67°29' E 013°51'1212.1
2016-Nov-28 09:33N 67°22' E 013°24'  
2016-Nov-24 16:21N 55°52' W 006°55'911.2
2016-Nov-24 15:33N 55°44' W 006°47'1111.2
2016-Nov-24 14:33N 55°36' W 006°33'1212.5
2016-Nov-24 13:33N 55°27' W 006°17'1312.9
2016-Nov-24 12:33N 55°21' W 005°57'1514.7
2016-Nov-24 11:33N 55°08' W 005°44'1414.2
2016-Nov-24 10:33N 54°57' W 005°30'1413.8
2016-Nov-24 09:33N 54°45' W 005°18'1313.1
2016-Nov-24 08:33N 54°34' W 005°06'1212.3
2016-Nov-24 07:33N 54°22' W 005°04'1312.7
2016-Nov-24 06:33N 54°09' W 005°05'21511.3
2016-Nov-23 11:30N 50°36' W 005°52'  
Track history (hours):
 
Tides and Currents Weather Stations Pressure Air Temp Water Temp Dewpoint Dewpoint Depression Visibility Wind Speed Wind Dir Waves Ship Positions

Wilson Norfolk

Last reported at 2016-Dec-02 12:33 UTC. Time now 2016-Dec-10 07:00 UTC.
Position N 71°05' E 030°19'.

Length 123 m; draft 5 m.

Type: Cargo ship. MMSI: 248678000.

Date/timePositionNaut miles runAvg speedWind from/ knotsBaromVisibWave heightAir tempDewpointWater temp
2016-Dec-02 12:33N 71°05' E 030°19'8 7.6
2016-Dec-02 11:32N 71°09' E 029°60'1212.6
2016-Dec-02 10:33N 71°16' E 029°29'37612.8
2016-Dec-01 05:10N 67°23' E 015°35'1 1.2
2016-Dec-01 04:29N 67°23' E 015°35'0 0.4
2016-Dec-01 03:19N 67°24' E 015°34'2 2.3
2016-Dec-01 02:27N 67°25' E 015°32'5 2.6
2016-Dec-01 00:33N 67°30' E 015°27'6 5.5
2016-Nov-30 23:32N 67°32' E 015°14'6 6.5
2016-Nov-30 22:33N 67°36' E 014°59'8 8.0
2016-Nov-30 21:33N 67°32' E 014°41'8 7.6
2016-Nov-30 20:33N 67°30' E 014°22'7 7.4
2016-Nov-30 19:33N 67°30' E 014°03'8 8.1
2016-Nov-30 18:33N 67°27' E 013°43'8 8.4
2016-Nov-30 17:34N 67°22' E 013°26'7 7.3
2016-Nov-30 16:33N 67°18' E 013°11'35 2.0
2016-Nov-29 23:32N 67°44' E 014°09'9 9.5
2016-Nov-29 22:33N 67°35' E 014°19'9 8.7
2016-Nov-29 21:33N 67°31' E 014°37'13 9.6
2016-Nov-29 20:11N 67°34' E 015°11'10 0.3
2016-Nov-28 12:26N 67°33' E 014°45'1111.3
2016-Nov-28 11:29N 67°30' E 014°18'1111.4
2016-Nov-28 10:33N 67°29' E 013°51'1212.1
2016-Nov-28 09:33N 67°22' E 013°24'  
2016-Nov-24 16:21N 55°52' W 006°55'911.2
2016-Nov-24 15:33N 55°44' W 006°47'1111.2
2016-Nov-24 14:33N 55°36' W 006°33'1212.5
2016-Nov-24 13:33N 55°27' W 006°17'1312.9
2016-Nov-24 12:33N 55°21' W 005°57'1514.7
2016-Nov-24 11:33N 55°08' W 005°44'1414.2
2016-Nov-24 10:33N 54°57' W 005°30'1413.8
2016-Nov-24 09:33N 54°45' W 005°18'1313.1
2016-Nov-24 08:33N 54°34' W 005°06'1212.3
2016-Nov-24 07:33N 54°22' W 005°04'1312.7
2016-Nov-24 06:33N 54°09' W 005°05'21511.3
2016-Nov-23 11:30N 50°36' W 005°52'  

Dump ship's entire track history